sensor_id;sensor_type;location;lat;lon;timestamp;temperature;humidity
20670;DHT22;10494;50.868;4.180;2024-03-02T00:01:26;6.60;99.90
20670;DHT22;10494;50.868;4.180;2024-03-02T00:03:51;6.60;99.90
20670;DHT22;10494;50.868;4.180;2024-03-02T00:06:20;6.60;99.90
20670;DHT22;10494;50.868;4.180;2024-03-02T00:08:46;6.60;99.90
20670;DHT22;10494;50.868;4.180;2024-03-02T00:11:11;6.60;99.90
20670;DHT22;10494;50.868;4.180;2024-03-02T00:13:39;6.60;99.90
20670;DHT22;10494;50.868;4.180;2024-03-02T00:16:05;6.60;99.90
20670;DHT22;10494;50.868;4.180;2024-03-02T00:18:35;6.70;99.90
20670;DHT22;10494;50.868;4.180;2024-03-02T00:21:00;6.70;99.90
20670;DHT22;10494;50.868;4.180;2024-03-02T00:23:30;6.70;99.90
20670;DHT22;10494;50.868;4.180;2024-03-02T00:25:57;6.70;99.90
20670;DHT22;10494;50.868;4.180;2024-03-02T00:28:31;6.70;99.90
20670;DHT22;10494;50.868;4.180;2024-03-02T00:33:35;6.80;99.90
20670;DHT22;10494;50.868;4.180;2024-03-02T00:36:02;6.70;99.90
20670;DHT22;10494;50.868;4.180;2024-03-02T00:38:32;6.70;99.90
20670;DHT22;10494;50.868;4.180;2024-03-02T00:41:01;6.70;99.90
20670;DHT22;10494;50.868;4.180;2024-03-02T00:43:50;6.70;99.90
20670;DHT22;10494;50.868;4.180;2024-03-02T00:46:19;6.80;99.90
20670;DHT22;10494;50.868;4.180;2024-03-02T00:48:52;6.80;99.90
20670;DHT22;10494;50.868;4.180;2024-03-02T00:51:20;6.70;99.90
20670;DHT22;10494;50.868;4.180;2024-03-02T00:53:45;6.80;99.90
20670;DHT22;10494;50.868;4.180;2024-03-02T00:56:11;6.80;99.90
20670;DHT22;10494;50.868;4.180;2024-03-02T00:58:38;6.70;99.90
20670;DHT22;10494;50.868;4.180;2024-03-02T01:01:03;6.80;99.90
20670;DHT22;10494;50.868;4.180;2024-03-02T01:03:30;6.90;99.90
20670;DHT22;10494;50.868;4.180;2024-03-02T01:05:56;6.90;99.90
20670;DHT22;10494;50.868;4.180;2024-03-02T01:08:21;6.90;99.90
20670;DHT22;10494;50.868;4.180;2024-03-02T01:10:47;6.90;99.90
20670;DHT22;10494;50.868;4.180;2024-03-02T01:13:13;6.80;99.90
20670;DHT22;10494;50.868;4.180;2024-03-02T01:15:38;6.80;99.90
20670;DHT22;10494;50.868;4.180;2024-03-02T01:18:04;6.90;99.90
20670;DHT22;10494;50.868;4.180;2024-03-02T01:20:30;6.80;99.90
20670;DHT22;10494;50.868;4.180;2024-03-02T01:22:55;6.80;99.90
20670;DHT22;10494;50.868;4.180;2024-03-02T01:25:21;6.90;99.90
20670;DHT22;10494;50.868;4.180;2024-03-02T01:27:46;6.90;99.90
20670;DHT22;10494;50.868;4.180;2024-03-02T01:30:12;6.90;99.90
20670;DHT22;10494;50.868;4.180;2024-03-02T01:32:38;6.90;99.90
20670;DHT22;10494;50.868;4.180;2024-03-02T01:35:05;6.90;99.90
20670;DHT22;10494;50.868;4.180;2024-03-02T01:37:30;7.00;99.90
20670;DHT22;10494;50.868;4.180;2024-03-02T01:39:56;7.00;99.90
20670;DHT22;10494;50.868;4.180;2024-03-02T01:42:21;6.90;99.90
20670;DHT22;10494;50.868;4.180;2024-03-02T01:44:47;6.90;99.90
20670;DHT22;10494;50.868;4.180;2024-03-02T01:47:13;7.00;99.90
20670;DHT22;10494;50.868;4.180;2024-03-02T01:49:39;6.90;99.90
20670;DHT22;10494;50.868;4.180;2024-03-02T01:52:06;6.90;99.90
20670;DHT22;10494;50.868;4.180;2024-03-02T01:54:32;6.90;99.90
20670;DHT22;10494;50.868;4.180;2024-03-02T01:56:58;6.90;99.90
20670;DHT22;10494;50.868;4.180;2024-03-02T01:59:24;6.90;99.90
20670;DHT22;10494;50.868;4.180;2024-03-02T02:01:49;6.90;99.90
20670;DHT22;10494;50.868;4.180;2024-03-02T02:04:15;6.90;99.90
20670;DHT22;10494;50.868;4.180;2024-03-02T02:06:40;7.00;99.90
20670;DHT22;10494;50.868;4.180;2024-03-02T02:09:06;7.00;99.90
20670;DHT22;10494;50.868;4.180;2024-03-02T02:11:34;7.00;99.90
20670;DHT22;10494;50.868;4.180;2024-03-02T02:14:00;7.00;99.90
20670;DHT22;10494;50.868;4.180;2024-03-02T02:16:25;7.00;99.90
20670;DHT22;10494;50.868;4.180;2024-03-02T02:18:51;7.00;99.90
20670;DHT22;10494;50.868;4.180;2024-03-02T02:21:16;6.90;99.90
20670;DHT22;10494;50.868;4.180;2024-03-02T02:23:42;6.90;99.90
20670;DHT22;10494;50.868;4.180;2024-03-02T02:26:11;6.90;99.90
20670;DHT22;10494;50.868;4.180;2024-03-02T02:28:37;6.90;99.90
20670;DHT22;10494;50.868;4.180;2024-03-02T02:31:03;6.90;99.90
20670;DHT22;10494;50.868;4.180;2024-03-02T02:33:29;6.90;99.90
20670;DHT22;10494;50.868;4.180;2024-03-02T02:35:54;7.00;99.90
20670;DHT22;10494;50.868;4.180;2024-03-02T02:38:20;7.00;99.90
20670;DHT22;10494;50.868;4.180;2024-03-02T02:40:46;7.00;99.90
20670;DHT22;10494;50.868;4.180;2024-03-02T02:43:11;7.00;99.90
20670;DHT22;10494;50.868;4.180;2024-03-02T02:45:37;7.00;99.90
20670;DHT22;10494;50.868;4.180;2024-03-02T02:48:03;7.00;99.90
20670;DHT22;10494;50.868;4.180;2024-03-02T02:50:29;7.00;99.90
20670;DHT22;10494;50.868;4.180;2024-03-02T02:52:54;7.00;99.90
20670;DHT22;10494;50.868;4.180;2024-03-02T02:55:20;6.90;99.90
20670;DHT22;10494;50.868;4.180;2024-03-02T02:57:45;6.90;99.90
20670;DHT22;10494;50.868;4.180;2024-03-02T03:00:14;6.90;99.90
20670;DHT22;10494;50.868;4.180;2024-03-02T03:02:41;6.90;99.90
20670;DHT22;10494;50.868;4.180;2024-03-02T03:05:08;7.00;99.90
20670;DHT22;10494;50.868;4.180;2024-03-02T03:07:34;7.00;99.90
20670;DHT22;10494;50.868;4.180;2024-03-02T03:10:00;7.00;99.90
20670;DHT22;10494;50.868;4.180;2024-03-02T03:12:26;7.00;99.90
20670;DHT22;10494;50.868;4.180;2024-03-02T03:14:52;7.00;99.90
20670;DHT22;10494;50.868;4.180;2024-03-02T03:17:17;7.00;99.90
20670;DHT22;10494;50.868;4.180;2024-03-02T03:19:43;7.00;99.90
20670;DHT22;10494;50.868;4.180;2024-03-02T03:22:09;6.90;99.90
20670;DHT22;10494;50.868;4.180;2024-03-02T03:24:35;6.90;99.90
20670;DHT22;10494;50.868;4.180;2024-03-02T03:27:00;6.80;99.90
20670;DHT22;10494;50.868;4.180;2024-03-02T03:29:26;6.70;99.90
20670;DHT22;10494;50.868;4.180;2024-03-02T03:31:51;6.80;99.90
20670;DHT22;10494;50.868;4.180;2024-03-02T03:34:17;6.80;99.90
20670;DHT22;10494;50.868;4.180;2024-03-02T03:36:43;6.70;99.90
20670;DHT22;10494;50.868;4.180;2024-03-02T03:39:09;6.80;99.90
20670;DHT22;10494;50.868;4.180;2024-03-02T03:41:34;6.70;99.90
20670;DHT22;10494;50.868;4.180;2024-03-02T03:44:00;6.80;99.90
20670;DHT22;10494;50.868;4.180;2024-03-02T03:46:25;6.80;99.90
20670;DHT22;10494;50.868;4.180;2024-03-02T03:48:51;6.80;99.90
20670;DHT22;10494;50.868;4.180;2024-03-02T03:51:16;6.90;99.90
20670;DHT22;10494;50.868;4.180;2024-03-02T03:53:42;6.80;99.90
20670;DHT22;10494;50.868;4.180;2024-03-02T03:56:08;6.80;99.90
20670;DHT22;10494;50.868;4.180;2024-03-02T03:58:33;6.90;99.90
20670;DHT22;10494;50.868;4.180;2024-03-02T04:00:59;6.80;99.90
20670;DHT22;10494;50.868;4.180;2024-03-02T04:03:24;6.80;99.90
20670;DHT22;10494;50.868;4.180;2024-03-02T04:05:50;6.80;99.90
20670;DHT22;10494;50.868;4.180;2024-03-02T04:08:16;6.70;99.90
20670;DHT22;10494;50.868;4.180;2024-03-02T04:10:42;6.70;99.90
20670;DHT22;10494;50.868;4.180;2024-03-02T04:13:07;6.70;99.90
20670;DHT22;10494;50.868;4.180;2024-03-02T04:15:33;6.70;99.90
20670;DHT22;10494;50.868;4.180;2024-03-02T04:17:58;6.70;99.90
20670;DHT22;10494;50.868;4.180;2024-03-02T04:20:24;6.80;99.90
20670;DHT22;10494;50.868;4.180;2024-03-02T04:22:50;6.80;99.90
20670;DHT22;10494;50.868;4.180;2024-03-02T04:25:16;7.00;99.90
20670;DHT22;10494;50.868;4.180;2024-03-02T04:27:43;7.00;99.90
20670;DHT22;10494;50.868;4.180;2024-03-02T04:30:08;7.00;99.90
20670;DHT22;10494;50.868;4.180;2024-03-02T04:32:34;7.00;99.90
20670;DHT22;10494;50.868;4.180;2024-03-02T04:35:01;7.00;99.90
20670;DHT22;10494;50.868;4.180;2024-03-02T04:37:27;7.00;99.90
20670;DHT22;10494;50.868;4.180;2024-03-02T04:39:53;7.00;99.90
20670;DHT22;10494;50.868;4.180;2024-03-02T04:42:19;7.00;99.90
20670;DHT22;10494;50.868;4.180;2024-03-02T04:44:44;7.00;99.90
20670;DHT22;10494;50.868;4.180;2024-03-02T04:47:10;6.90;99.90
20670;DHT22;10494;50.868;4.180;2024-03-02T04:49:35;6.90;99.90
20670;DHT22;10494;50.868;4.180;2024-03-02T04:52:01;6.90;99.90
20670;DHT22;10494;50.868;4.180;2024-03-02T04:54:27;6.90;99.90
20670;DHT22;10494;50.868;4.180;2024-03-02T04:56:52;6.90;99.90
20670;DHT22;10494;50.868;4.180;2024-03-02T04:59:19;6.90;99.90
20670;DHT22;10494;50.868;4.180;2024-03-02T05:01:45;6.80;99.90
20670;DHT22;10494;50.868;4.180;2024-03-02T05:04:10;6.70;99.90
20670;DHT22;10494;50.868;4.180;2024-03-02T05:06:38;6.60;99.90
20670;DHT22;10494;50.868;4.180;2024-03-02T05:09:04;6.70;99.90
20670;DHT22;10494;50.868;4.180;2024-03-02T05:11:30;6.60;99.90
20670;DHT22;10494;50.868;4.180;2024-03-02T05:14:05;6.70;99.90
20670;DHT22;10494;50.868;4.180;2024-03-02T05:16:34;6.50;99.90
20670;DHT22;10494;50.868;4.180;2024-03-02T05:19:00;6.50;99.90
20670;DHT22;10494;50.868;4.180;2024-03-02T05:21:26;6.50;99.90
20670;DHT22;10494;50.868;4.180;2024-03-02T05:23:51;6.40;99.90
20670;DHT22;10494;50.868;4.180;2024-03-02T05:26:17;6.40;99.90
20670;DHT22;10494;50.868;4.180;2024-03-02T05:28:43;6.40;99.90
20670;DHT22;10494;50.868;4.180;2024-03-02T05:31:15;6.40;99.90
20670;DHT22;10494;50.868;4.180;2024-03-02T05:33:41;6.30;99.90
20670;DHT22;10494;50.868;4.180;2024-03-02T05:36:06;6.30;99.90
20670;DHT22;10494;50.868;4.180;2024-03-02T05:38:34;6.20;99.90
20670;DHT22;10494;50.868;4.180;2024-03-02T05:41:00;6.20;99.90
20670;DHT22;10494;50.868;4.180;2024-03-02T05:43:25;6.20;99.90
20670;DHT22;10494;50.868;4.180;2024-03-02T05:45:51;6.20;99.90
20670;DHT22;10494;50.868;4.180;2024-03-02T05:48:16;6.10;99.90
20670;DHT22;10494;50.868;4.180;2024-03-02T05:50:42;6.10;99.90
20670;DHT22;10494;50.868;4.180;2024-03-02T05:53:08;6.10;99.90
20670;DHT22;10494;50.868;4.180;2024-03-02T05:55:33;6.00;99.90
20670;DHT22;10494;50.868;4.180;2024-03-02T05:57:59;6.00;99.90
20670;DHT22;10494;50.868;4.180;2024-03-02T06:00:43;6.00;99.90
20670;DHT22;10494;50.868;4.180;2024-03-02T06:03:08;6.00;99.90
20670;DHT22;10494;50.868;4.180;2024-03-02T06:05:34;6.00;99.90
20670;DHT22;10494;50.868;4.180;2024-03-02T06:08:00;6.00;99.90
20670;DHT22;10494;50.868;4.180;2024-03-02T06:10:26;6.00;99.90
20670;DHT22;10494;50.868;4.180;2024-03-02T06:12:51;6.00;99.90
20670;DHT22;10494;50.868;4.180;2024-03-02T06:15:17;5.90;99.90
20670;DHT22;10494;50.868;4.180;2024-03-02T06:17:42;5.90;99.90
20670;DHT22;10494;50.868;4.180;2024-03-02T06:20:08;6.00;99.90
20670;DHT22;10494;50.868;4.180;2024-03-02T06:22:34;6.00;99.90
20670;DHT22;10494;50.868;4.180;2024-03-02T06:25:00;5.90;99.90
20670;DHT22;10494;50.868;4.180;2024-03-02T06:27:26;5.90;99.90
20670;DHT22;10494;50.868;4.180;2024-03-02T06:29:51;5.90;99.90
20670;DHT22;10494;50.868;4.180;2024-03-02T06:32:17;6.00;99.90
20670;DHT22;10494;50.868;4.180;2024-03-02T06:34:43;6.00;99.90
20670;DHT22;10494;50.868;4.180;2024-03-02T06:37:08;5.90;99.90
20670;DHT22;10494;50.868;4.180;2024-03-02T06:39:34;5.90;99.90
20670;DHT22;10494;50.868;4.180;2024-03-02T06:42:03;5.80;99.90
20670;DHT22;10494;50.868;4.180;2024-03-02T06:44:28;5.90;99.90
20670;DHT22;10494;50.868;4.180;2024-03-02T06:46:54;5.80;99.90
20670;DHT22;10494;50.868;4.180;2024-03-02T06:49:19;5.80;99.90
20670;DHT22;10494;50.868;4.180;2024-03-02T06:51:45;5.80;99.90
20670;DHT22;10494;50.868;4.180;2024-03-02T06:54:10;5.90;99.90
20670;DHT22;10494;50.868;4.180;2024-03-02T06:56:36;5.80;99.90
20670;DHT22;10494;50.868;4.180;2024-03-02T06:59:04;5.80;99.90
20670;DHT22;10494;50.868;4.180;2024-03-02T07:01:29;5.80;99.90
20670;DHT22;10494;50.868;4.180;2024-03-02T07:03:55;5.90;99.90
20670;DHT22;10494;50.868;4.180;2024-03-02T07:06:20;5.90;99.90
20670;DHT22;10494;50.868;4.180;2024-03-02T07:08:46;6.00;99.90
20670;DHT22;10494;50.868;4.180;2024-03-02T07:11:11;6.00;99.90
20670;DHT22;10494;50.868;4.180;2024-03-02T07:13:37;6.00;99.90
20670;DHT22;10494;50.868;4.180;2024-03-02T07:16:03;6.00;99.90
20670;DHT22;10494;50.868;4.180;2024-03-02T07:18:32;6.10;99.90
20670;DHT22;10494;50.868;4.180;2024-03-02T07:21:07;6.20;99.90
20670;DHT22;10494;50.868;4.180;2024-03-02T07:23:32;6.20;99.90
20670;DHT22;10494;50.868;4.180;2024-03-02T07:25:58;6.30;99.90
20670;DHT22;10494;50.868;4.180;2024-03-02T07:28:26;6.50;99.90
20670;DHT22;10494;50.868;4.180;2024-03-02T07:31:01;6.70;99.90
20670;DHT22;10494;50.868;4.180;2024-03-02T07:33:27;6.90;99.90
20670;DHT22;10494;50.868;4.180;2024-03-02T07:35:54;7.00;99.90
20670;DHT22;10494;50.868;4.180;2024-03-02T07:38:20;7.10;99.90
20670;DHT22;10494;50.868;4.180;2024-03-02T07:40:47;7.10;99.90
20670;DHT22;10494;50.868;4.180;2024-03-02T07:43:13;7.10;99.90
20670;DHT22;10494;50.868;4.180;2024-03-02T07:45:38;7.10;99.90
20670;DHT22;10494;50.868;4.180;2024-03-02T07:48:04;7.20;99.90
20670;DHT22;10494;50.868;4.180;2024-03-02T07:50:30;7.50;99.90
20670;DHT22;10494;50.868;4.180;2024-03-02T07:52:56;7.90;99.90
20670;DHT22;10494;50.868;4.180;2024-03-02T07:55:21;8.40;99.90
20670;DHT22;10494;50.868;4.180;2024-03-02T07:57:49;8.60;99.90
20670;DHT22;10494;50.868;4.180;2024-03-02T08:00:15;8.70;99.90
20670;DHT22;10494;50.868;4.180;2024-03-02T08:02:41;9.00;99.90
20670;DHT22;10494;50.868;4.180;2024-03-02T08:05:08;9.10;99.90
20670;DHT22;10494;50.868;4.180;2024-03-02T08:07:34;9.20;99.90
20670;DHT22;10494;50.868;4.180;2024-03-02T08:09:59;9.10;99.90
20670;DHT22;10494;50.868;4.180;2024-03-02T08:12:25;9.30;99.90
20670;DHT22;10494;50.868;4.180;2024-03-02T08:14:51;9.40;99.90
20670;DHT22;10494;50.868;4.180;2024-03-02T08:17:16;9.50;99.90
20670;DHT22;10494;50.868;4.180;2024-03-02T08:19:42;9.60;99.90
20670;DHT22;10494;50.868;4.180;2024-03-02T08:22:08;9.70;99.90
20670;DHT22;10494;50.868;4.180;2024-03-02T08:24:34;9.80;99.90
20670;DHT22;10494;50.868;4.180;2024-03-02T08:27:00;9.80;99.90
20670;DHT22;10494;50.868;4.180;2024-03-02T08:29:25;10.10;99.90
20670;DHT22;10494;50.868;4.180;2024-03-02T08:31:51;10.50;99.90
20670;DHT22;10494;50.868;4.180;2024-03-02T08:34:17;10.30;99.90
20670;DHT22;10494;50.868;4.180;2024-03-02T08:36:42;10.10;99.90
20670;DHT22;10494;50.868;4.180;2024-03-02T08:39:08;10.10;99.90
20670;DHT22;10494;50.868;4.180;2024-03-02T08:41:41;10.30;99.90
20670;DHT22;10494;50.868;4.180;2024-03-02T08:44:08;10.20;99.90
20670;DHT22;10494;50.868;4.180;2024-03-02T08:46:34;10.10;99.90
20670;DHT22;10494;50.868;4.180;2024-03-02T08:49:00;10.40;99.90
20670;DHT22;10494;50.868;4.180;2024-03-02T08:51:25;10.70;99.90
20670;DHT22;10494;50.868;4.180;2024-03-02T08:53:51;10.70;99.90
20670;DHT22;10494;50.868;4.180;2024-03-02T08:56:16;10.50;99.90
20670;DHT22;10494;50.868;4.180;2024-03-02T08:58:43;10.30;99.90
20670;DHT22;10494;50.868;4.180;2024-03-02T09:01:09;10.00;99.90
20670;DHT22;10494;50.868;4.180;2024-03-02T09:03:35;9.90;99.90
20670;DHT22;10494;50.868;4.180;2024-03-02T09:06:01;10.30;99.90
20670;DHT22;10494;50.868;4.180;2024-03-02T09:08:26;10.80;99.90
20670;DHT22;10494;50.868;4.180;2024-03-02T09:10:52;10.50;99.90
20670;DHT22;10494;50.868;4.180;2024-03-02T09:13:18;10.80;99.90
20670;DHT22;10494;50.868;4.180;2024-03-02T09:15:44;10.70;99.90
20670;DHT22;10494;50.868;4.180;2024-03-02T09:18:10;10.60;99.90
20670;DHT22;10494;50.868;4.180;2024-03-02T09:20:36;10.50;99.90
20670;DHT22;10494;50.868;4.180;2024-03-02T09:23:01;10.60;99.90
20670;DHT22;10494;50.868;4.180;2024-03-02T09:25:27;10.80;99.90
20670;DHT22;10494;50.868;4.180;2024-03-02T09:27:52;10.90;99.90
20670;DHT22;10494;50.868;4.180;2024-03-02T09:30:18;11.00;99.90
20670;DHT22;10494;50.868;4.180;2024-03-02T09:32:43;11.30;99.90
20670;DHT22;10494;50.868;4.180;2024-03-02T09:35:09;11.20;99.90
20670;DHT22;10494;50.868;4.180;2024-03-02T09:37:35;11.00;99.90
20670;DHT22;10494;50.868;4.180;2024-03-02T09:40:01;10.90;99.90
20670;DHT22;10494;50.868;4.180;2024-03-02T09:42:27;11.00;99.90
20670;DHT22;10494;50.868;4.180;2024-03-02T09:44:53;11.10;99.90
20670;DHT22;10494;50.868;4.180;2024-03-02T09:47:18;11.10;99.90
20670;DHT22;10494;50.868;4.180;2024-03-02T09:49:44;11.30;99.90
20670;DHT22;10494;50.868;4.180;2024-03-02T09:52:10;11.10;99.90
20670;DHT22;10494;50.868;4.180;2024-03-02T09:54:36;11.20;99.90
20670;DHT22;10494;50.868;4.180;2024-03-02T09:57:02;10.60;99.90
20670;DHT22;10494;50.868;4.180;2024-03-02T09:59:28;10.10;99.90
20670;DHT22;10494;50.868;4.180;2024-03-02T10:02:01;10.00;99.90
20670;DHT22;10494;50.868;4.180;2024-03-02T10:04:28;9.90;99.90
20670;DHT22;10494;50.868;4.180;2024-03-02T10:07:12;9.90;99.90
20670;DHT22;10494;50.868;4.180;2024-03-02T10:09:38;9.90;99.90
20670;DHT22;10494;50.868;4.180;2024-03-02T10:12:05;9.90;99.90
20670;DHT22;10494;50.868;4.180;2024-03-02T10:14:31;10.10;99.90
20670;DHT22;10494;50.868;4.180;2024-03-02T10:17:05;10.20;99.90
20670;DHT22;10494;50.868;4.180;2024-03-02T10:19:31;10.20;99.90
20670;DHT22;10494;50.868;4.180;2024-03-02T10:22:07;10.20;99.90
20670;DHT22;10494;50.868;4.180;2024-03-02T10:27:17;10.20;99.90
20670;DHT22;10494;50.868;4.180;2024-03-02T10:29:46;10.20;99.90
20670;DHT22;10494;50.868;4.180;2024-03-02T10:32:12;10.20;99.90
20670;DHT22;10494;50.868;4.180;2024-03-02T10:34:40;10.20;99.90
20670;DHT22;10494;50.868;4.180;2024-03-02T10:37:06;10.20;99.90
20670;DHT22;10494;50.868;4.180;2024-03-02T10:39:35;10.30;99.90
20670;DHT22;10494;50.868;4.180;2024-03-02T10:42:03;10.50;99.90
20670;DHT22;10494;50.868;4.180;2024-03-02T10:44:29;10.60;99.90
20670;DHT22;10494;50.868;4.180;2024-03-02T10:46:56;10.60;99.90
20670;DHT22;10494;50.868;4.180;2024-03-02T10:49:23;10.60;99.90
20670;DHT22;10494;50.868;4.180;2024-03-02T10:51:49;10.70;99.90
20670;DHT22;10494;50.868;4.180;2024-03-02T10:54:15;10.70;99.90
20670;DHT22;10494;50.868;4.180;2024-03-02T10:56:42;10.60;99.90
20670;DHT22;10494;50.868;4.180;2024-03-02T10:59:23;10.50;99.90
20670;DHT22;10494;50.868;4.180;2024-03-02T11:01:50;10.50;99.90
20670;DHT22;10494;50.868;4.180;2024-03-02T11:04:18;10.60;99.90
20670;DHT22;10494;50.868;4.180;2024-03-02T11:06:48;10.70;99.90
20670;DHT22;10494;50.868;4.180;2024-03-02T11:09:14;10.80;99.90
20670;DHT22;10494;50.868;4.180;2024-03-02T11:11:43;10.80;99.90
20670;DHT22;10494;50.868;4.180;2024-03-02T11:14:16;10.80;99.90
20670;DHT22;10494;50.868;4.180;2024-03-02T11:16:42;10.70;99.90
20670;DHT22;10494;50.868;4.180;2024-03-02T11:19:11;10.70;99.90
20670;DHT22;10494;50.868;4.180;2024-03-02T11:21:38;10.70;99.90
20670;DHT22;10494;50.868;4.180;2024-03-02T11:26:52;10.70;99.90
20670;DHT22;10494;50.868;4.180;2024-03-02T11:32:14;10.80;99.90
20670;DHT22;10494;50.868;4.180;2024-03-02T11:34:42;10.90;99.90
20670;DHT22;10494;50.868;4.180;2024-03-02T11:37:12;10.80;99.90
20670;DHT22;10494;50.868;4.180;2024-03-02T11:39:39;10.80;99.90
20670;DHT22;10494;50.868;4.180;2024-03-02T11:42:08;10.90;99.90
20670;DHT22;10494;50.868;4.180;2024-03-02T11:44:38;10.90;99.90
20670;DHT22;10494;50.868;4.180;2024-03-02T11:47:08;10.90;99.90
20670;DHT22;10494;50.868;4.180;2024-03-02T11:49:48;11.00;99.90
20670;DHT22;10494;50.868;4.180;2024-03-02T11:52:15;11.10;99.90
20670;DHT22;10494;50.868;4.180;2024-03-02T11:54:44;11.30;99.90
20670;DHT22;10494;50.868;4.180;2024-03-02T11:57:15;11.40;99.90
20670;DHT22;10494;50.868;4.180;2024-03-02T11:59:42;11.50;99.90
20670;DHT22;10494;50.868;4.180;2024-03-02T12:02:15;11.60;99.90
20670;DHT22;10494;50.868;4.180;2024-03-02T12:04:42;11.80;99.90
20670;DHT22;10494;50.868;4.180;2024-03-02T12:07:09;11.80;99.90
20670;DHT22;10494;50.868;4.180;2024-03-02T12:09:35;11.70;99.90
20670;DHT22;10494;50.868;4.180;2024-03-02T12:12:07;11.60;99.90
20670;DHT22;10494;50.868;4.180;2024-03-02T12:14:35;11.60;99.90
20670;DHT22;10494;50.868;4.180;2024-03-02T12:17:01;11.60;99.90
20670;DHT22;10494;50.868;4.180;2024-03-02T12:19:28;11.70;99.90
20670;DHT22;10494;50.868;4.180;2024-03-02T12:21:59;11.90;99.90
20670;DHT22;10494;50.868;4.180;2024-03-02T12:24:27;12.00;99.90
20670;DHT22;10494;50.868;4.180;2024-03-02T12:26:53;12.10;99.90
20670;DHT22;10494;50.868;4.180;2024-03-02T12:29:20;12.30;99.90
20670;DHT22;10494;50.868;4.180;2024-03-02T12:31:48;12.50;99.90
20670;DHT22;10494;50.868;4.180;2024-03-02T12:34:15;12.50;99.90
20670;DHT22;10494;50.868;4.180;2024-03-02T12:36:41;12.40;99.90
20670;DHT22;10494;50.868;4.180;2024-03-02T12:39:10;12.30;99.90
20670;DHT22;10494;50.868;4.180;2024-03-02T12:41:36;12.00;99.90
20670;DHT22;10494;50.868;4.180;2024-03-02T12:44:03;12.00;99.90
20670;DHT22;10494;50.868;4.180;2024-03-02T12:46:30;12.00;99.90
20670;DHT22;10494;50.868;4.180;2024-03-02T12:48:56;11.90;99.90
20670;DHT22;10494;50.868;4.180;2024-03-02T12:51:21;11.90;99.90
20670;DHT22;10494;50.868;4.180;2024-03-02T12:53:54;12.10;99.90
20670;DHT22;10494;50.868;4.180;2024-03-02T12:56:20;12.20;99.90
20670;DHT22;10494;50.868;4.180;2024-03-02T12:58:45;12.20;99.90
20670;DHT22;10494;50.868;4.180;2024-03-02T13:01:11;12.10;99.90
20670;DHT22;10494;50.868;4.180;2024-03-02T13:03:38;12.20;99.90
20670;DHT22;10494;50.868;4.180;2024-03-02T13:06:05;12.10;99.90
20670;DHT22;10494;50.868;4.180;2024-03-02T13:08:32;12.00;99.90
20670;DHT22;10494;50.868;4.180;2024-03-02T13:10:58;12.00;99.90
20670;DHT22;10494;50.868;4.180;2024-03-02T13:13:23;12.00;99.90
20670;DHT22;10494;50.868;4.180;2024-03-02T13:15:49;12.10;99.90
20670;DHT22;10494;50.868;4.180;2024-03-02T13:18:17;12.20;99.90
20670;DHT22;10494;50.868;4.180;2024-03-02T13:20:43;12.20;99.90
20670;DHT22;10494;50.868;4.180;2024-03-02T13:23:09;12.30;99.90
20670;DHT22;10494;50.868;4.180;2024-03-02T13:25:35;12.50;99.90
20670;DHT22;10494;50.868;4.180;2024-03-02T13:28:01;12.60;99.90
20670;DHT22;10494;50.868;4.180;2024-03-02T13:30:27;12.70;99.90
20670;DHT22;10494;50.868;4.180;2024-03-02T13:32:53;12.60;99.90
20670;DHT22;10494;50.868;4.180;2024-03-02T13:35:19;12.70;99.90
20670;DHT22;10494;50.868;4.180;2024-03-02T13:37:44;12.60;99.90
20670;DHT22;10494;50.868;4.180;2024-03-02T13:40:10;12.50;99.90
20670;DHT22;10494;50.868;4.180;2024-03-02T13:42:40;12.40;99.90
20670;DHT22;10494;50.868;4.180;2024-03-02T13:45:06;12.30;99.90
20670;DHT22;10494;50.868;4.180;2024-03-02T13:47:31;12.20;99.90
20670;DHT22;10494;50.868;4.180;2024-03-02T13:49:57;12.20;99.90
20670;DHT22;10494;50.868;4.180;2024-03-02T13:52:23;12.20;99.90
20670;DHT22;10494;50.868;4.180;2024-03-02T13:54:51;12.10;99.90
20670;DHT22;10494;50.868;4.180;2024-03-02T13:57:17;12.10;99.90
20670;DHT22;10494;50.868;4.180;2024-03-02T13:59:45;12.20;99.90
20670;DHT22;10494;50.868;4.180;2024-03-02T14:02:11;12.20;99.90
20670;DHT22;10494;50.868;4.180;2024-03-02T14:04:37;12.20;99.90
20670;DHT22;10494;50.868;4.180;2024-03-02T14:07:04;12.30;99.90
20670;DHT22;10494;50.868;4.180;2024-03-02T14:09:32;12.30;99.90
20670;DHT22;10494;50.868;4.180;2024-03-02T14:11:58;12.30;99.90
20670;DHT22;10494;50.868;4.180;2024-03-02T14:14:26;12.40;99.90
20670;DHT22;10494;50.868;4.180;2024-03-02T14:16:55;12.50;99.90
20670;DHT22;10494;50.868;4.180;2024-03-02T14:19:29;12.50;99.90
20670;DHT22;10494;50.868;4.180;2024-03-02T14:21:55;12.40;99.90
20670;DHT22;10494;50.868;4.180;2024-03-02T14:24:21;12.40;99.90
20670;DHT22;10494;50.868;4.180;2024-03-02T14:26:53;12.30;99.90
20670;DHT22;10494;50.868;4.180;2024-03-02T14:29:19;12.30;99.90
20670;DHT22;10494;50.868;4.180;2024-03-02T14:31:45;12.40;99.90
20670;DHT22;10494;50.868;4.180;2024-03-02T14:34:14;12.40;99.90
20670;DHT22;10494;50.868;4.180;2024-03-02T14:36:40;12.40;99.90
20670;DHT22;10494;50.868;4.180;2024-03-02T14:39:06;12.30;99.90
20670;DHT22;10494;50.868;4.180;2024-03-02T14:41:38;12.30;99.90
20670;DHT22;10494;50.868;4.180;2024-03-02T14:44:04;12.30;99.90
20670;DHT22;10494;50.868;4.180;2024-03-02T14:46:29;12.30;99.90
20670;DHT22;10494;50.868;4.180;2024-03-02T14:48:55;12.30;99.90
20670;DHT22;10494;50.868;4.180;2024-03-02T14:51:21;12.30;99.90
20670;DHT22;10494;50.868;4.180;2024-03-02T14:53:46;12.20;99.90
20670;DHT22;10494;50.868;4.180;2024-03-02T14:56:12;12.30;99.90
20670;DHT22;10494;50.868;4.180;2024-03-02T14:58:40;12.30;99.90
20670;DHT22;10494;50.868;4.180;2024-03-02T15:01:06;12.20;99.90
20670;DHT22;10494;50.868;4.180;2024-03-02T15:03:32;12.10;99.90
20670;DHT22;10494;50.868;4.180;2024-03-02T15:05:58;12.20;99.90
20670;DHT22;10494;50.868;4.180;2024-03-02T15:08:24;12.20;99.90
20670;DHT22;10494;50.868;4.180;2024-03-02T15:10:50;12.20;99.90
20670;DHT22;10494;50.868;4.180;2024-03-02T15:13:16;12.10;99.90
20670;DHT22;10494;50.868;4.180;2024-03-02T15:15:41;12.10;99.90
20670;DHT22;10494;50.868;4.180;2024-03-02T15:18:07;12.00;99.90
20670;DHT22;10494;50.868;4.180;2024-03-02T15:20:34;12.00;99.90
20670;DHT22;10494;50.868;4.180;2024-03-02T15:22:59;12.00;99.90
20670;DHT22;10494;50.868;4.180;2024-03-02T15:25:25;12.10;99.90
20670;DHT22;10494;50.868;4.180;2024-03-02T15:27:50;12.00;99.90
20670;DHT22;10494;50.868;4.180;2024-03-02T15:30:16;12.10;99.90
20670;DHT22;10494;50.868;4.180;2024-03-02T15:32:42;12.20;99.90
20670;DHT22;10494;50.868;4.180;2024-03-02T15:35:07;12.20;99.90
20670;DHT22;10494;50.868;4.180;2024-03-02T15:37:34;12.10;99.90
20670;DHT22;10494;50.868;4.180;2024-03-02T15:39:59;12.10;99.90
20670;DHT22;10494;50.868;4.180;2024-03-02T15:42:32;12.10;99.90
20670;DHT22;10494;50.868;4.180;2024-03-02T15:44:58;12.00;99.90
20670;DHT22;10494;50.868;4.180;2024-03-02T15:47:23;12.00;99.90